createdAt,value
2023-01-17T00:07:49.509Z,3.5
2023-01-17T00:17:51.691Z,3.3
2023-01-17T00:27:54.248Z,3.2
2023-01-17T00:37:56.182Z,3.2
2023-01-17T00:47:58.227Z,3.2
2023-01-17T00:58:00.158Z,3.3
2023-01-17T01:08:02.673Z,3.3
2023-01-17T01:18:05.284Z,3.2
2023-01-17T01:28:07.574Z,3.1
2023-01-17T01:38:09.307Z,3
2023-01-17T01:48:11.892Z,3
2023-01-17T01:58:14.365Z,3
2023-01-17T02:08:16.516Z,2.9
2023-01-17T02:18:19.015Z,2.8
2023-01-17T02:28:20.991Z,2.7
2023-01-17T02:38:22.909Z,2.6
2023-01-17T02:48:25.510Z,2.1
2023-01-17T02:58:27.668Z,1.7
2023-01-17T03:18:31.866Z,1.2
2023-01-17T03:28:33.774Z,0.8
2023-01-17T03:38:35.485Z,0.5
2023-01-17T03:48:37.273Z,0.4
2023-01-17T03:58:39.058Z,0.6
2023-01-17T04:08:41.391Z,0.6
2023-01-17T04:18:43.258Z,0.7
2023-01-17T04:28:45.650Z,0.8
2023-01-17T04:38:47.580Z,0.9
2023-01-17T04:48:50.116Z,1
2023-01-17T04:58:52.065Z,1.1
2023-01-17T05:08:54.551Z,1.2
2023-01-17T05:18:56.808Z,1.3
2023-01-17T05:28:59.090Z,1.3
2023-01-17T05:39:01.594Z,1.2
2023-01-17T05:49:04.208Z,1.3
2023-01-17T05:59:06.863Z,1.3
2023-01-17T06:09:09.146Z,1.2
2023-01-17T06:19:11.702Z,1.2
2023-01-17T06:29:13.956Z,1.2
2023-01-17T06:39:15.985Z,1.1
2023-01-17T06:49:18.173Z,1.2
2023-01-17T06:59:20.718Z,1.1
2023-01-17T07:09:23.361Z,1.1
2023-01-17T07:19:25.703Z,1.1
2023-01-17T07:29:28.352Z,1.1
2023-01-17T07:39:30.674Z,1
2023-01-17T07:49:33.321Z,1
2023-01-17T07:59:35.393Z,1.1
2023-01-17T08:09:38.080Z,1.1
2023-01-17T08:19:40.761Z,1.1
2023-01-17T08:29:43.175Z,1.1
2023-01-17T08:39:45.158Z,1.2
2023-01-17T08:49:46.995Z,1.3
2023-01-17T08:59:49.390Z,1.4
2023-01-17T09:09:51.558Z,1.4
2023-01-17T09:19:53.738Z,1.5
2023-01-17T09:29:55.530Z,1.7
2023-01-17T09:39:57.854Z,2
2023-01-17T09:50:00.193Z,2.2
2023-01-17T10:00:03.872Z,2.7
2023-01-17T10:10:04.144Z,2.7
2023-01-17T10:20:06.121Z,2.9
2023-01-17T10:30:08.772Z,3.5
2023-01-17T10:40:10.618Z,3.5
2023-01-17T10:50:12.468Z,4.2
2023-01-17T11:00:14.939Z,3.9
2023-01-17T11:20:19.311Z,3.5
2023-01-17T11:30:21.731Z,4.1
2023-01-17T11:40:23.744Z,4.3
2023-01-17T11:50:25.513Z,4.2
2023-01-17T12:00:27.553Z,4.1
2023-01-17T12:10:30.111Z,3.8
2023-01-17T12:20:32.516Z,3.5
2023-01-17T12:30:34.806Z,3.7
2023-01-17T12:40:37.344Z,4.2
2023-01-17T12:50:39.962Z,4.1
2023-01-17T13:00:41.614Z,3.9
2023-01-17T13:10:43.786Z,3.8
2023-01-17T13:20:45.752Z,3.7
2023-01-17T13:30:47.844Z,4.3
2023-01-17T13:40:50.305Z,4.2
2023-01-17T13:50:52.419Z,3.8
2023-01-17T14:00:55.103Z,3.8
2023-01-17T14:10:56.866Z,3.8
2023-01-17T14:20:59.108Z,3.4
2023-01-17T14:31:00.838Z,3.4
2023-01-17T14:41:02.589Z,3.2
2023-01-17T14:51:04.866Z,3.1
2023-01-17T15:01:07.511Z,2.9
2023-01-17T15:11:09.683Z,2.6
2023-01-17T15:41:16.515Z,1.7
2023-01-17T16:41:29.985Z,0.9
2023-01-17T17:21:38.643Z,0.8
2023-01-17T17:31:40.584Z,0.8
2023-01-17T17:51:45.418Z,0.2
2023-01-17T18:01:48.052Z,-0.1
2023-01-17T18:11:49.788Z,-0.5
2023-01-17T19:02:01.662Z,-1.4
2023-01-17T19:12:03.626Z,-1.2
2023-01-17T19:22:05.470Z,-1.5
2023-01-17T19:32:08.004Z,-1.4
2023-01-17T19:42:10.164Z,-1.6
2023-01-17T19:52:12.052Z,-1.7
2023-01-17T20:02:14.769Z,-1.7
2023-01-17T20:12:17.337Z,-1.9
2023-01-17T20:22:19.556Z,-1.7
2023-01-17T20:32:21.637Z,-1.8
2023-01-17T20:42:24.184Z,-1.7
2023-01-17T20:52:26.096Z,-1.6
2023-01-17T21:42:38.588Z,-2.3
2023-01-17T21:52:41.036Z,-2.2
2023-01-17T22:02:43.701Z,-2.3
2023-01-17T22:12:45.997Z,-2.3
2023-01-17T22:22:48.370Z,-2.5
2023-01-17T22:32:50.104Z,-2.4
2023-01-17T22:42:52.672Z,-2.4
2023-01-17T22:52:55.727Z,-2.4
2023-01-17T23:14:27.017Z,-2.5
2023-01-17T23:23:10.511Z,-2.5
2023-01-17T23:33:12.480Z,-2.6
2023-01-17T23:43:14.251Z,-2.8
2023-01-17T23:53:15.986Z,-2.9
